createdAt,value
2023-01-11T00:01:23.969Z,101382.11
2023-01-11T00:03:53.136Z,101390.90
2023-01-11T00:06:21.926Z,101405.58
2023-01-11T00:08:50.490Z,101407.67
2023-01-11T00:11:19.150Z,101405.66
2023-01-11T00:13:48.093Z,101409.82
2023-01-11T00:16:17.572Z,101415.09
2023-01-11T00:18:46.363Z,101423.33
2023-01-11T00:21:15.138Z,101430.53
2023-01-11T00:23:43.757Z,101432.08
2023-01-11T00:26:13.711Z,101429.35
2023-01-11T00:28:42.902Z,101434.16
2023-01-11T00:31:11.684Z,101444.50
2023-01-11T00:33:40.406Z,101451.71
2023-01-11T00:36:09.339Z,101461.92
2023-01-11T00:38:44.044Z,101459.23
2023-01-11T00:41:34.639Z,101459.44
2023-01-11T00:44:23.809Z,101467.86
2023-01-11T00:50:20.672Z,101471.77
2023-01-11T00:52:49.391Z,101473.50
2023-01-11T00:55:18.471Z,101476.52
2023-01-11T00:57:49.527Z,101482.48
2023-01-11T01:00:20.461Z,101485.66
2023-01-11T01:02:50.124Z,101488.96
2023-01-11T01:05:19.613Z,101491.01
2023-01-11T01:07:48.672Z,101489.06
2023-01-11T01:10:18.624Z,101484.28
2023-01-11T01:13:06.440Z,101480.98
2023-01-11T01:15:35.222Z,101486.42
2023-01-11T01:18:04.155Z,101483.02
2023-01-11T01:20:32.725Z,101488.95
2023-01-11T01:23:01.570Z,101496.55
2023-01-11T01:25:30.210Z,101498.27
2023-01-11T01:27:58.944Z,101498.71
2023-01-11T01:30:27.564Z,101505.64
2023-01-11T01:32:56.218Z,101512.83
2023-01-11T01:35:24.814Z,101518.94
2023-01-11T01:37:53.542Z,101527.73
2023-01-11T01:40:23.018Z,101521.10
2023-01-11T01:42:55.630Z,101518.59
2023-01-11T01:45:28.833Z,101519.45
2023-01-11T01:48:02.782Z,101522.08
2023-01-11T01:50:52.376Z,101522.48
2023-01-11T01:53:32.059Z,101535.15
2023-01-11T01:56:03.915Z,101543.34
2023-01-11T01:58:49.656Z,101542.69
2023-01-11T02:01:37.751Z,101545.20
2023-01-11T02:04:17.888Z,101546.19
2023-01-11T02:06:46.926Z,101546.25
2023-01-11T02:09:33.233Z,101541.66
2023-01-11T02:12:03.196Z,101533.29
2023-01-11T02:14:33.068Z,101527.73
2023-01-11T02:17:01.774Z,101527.85
2023-01-11T02:20:06.474Z,101525.63
2023-01-11T02:23:22.129Z,101521.73
2023-01-11T02:26:02.733Z,101521.95
2023-01-11T02:28:49.592Z,101512.52
2023-01-11T02:31:56.468Z,101505.45
2023-01-11T02:34:47.966Z,101508.87
2023-01-11T02:37:42.733Z,101515.16
2023-01-11T02:40:32.605Z,101519.81
2023-01-11T02:43:44.168Z,101517.99
2023-01-11T02:46:28.272Z,101525.63
2023-01-11T02:49:12.866Z,101533.24
2023-01-11T02:51:54.618Z,101538.52
2023-01-11T02:54:25.118Z,101547.52
2023-01-11T02:57:00.559Z,101552.60
2023-01-11T02:59:33.834Z,101556.67
2023-01-11T03:02:02.928Z,101568.77
2023-01-11T03:04:38.019Z,101580.60
2023-01-11T03:07:46.135Z,101586.50
2023-01-11T03:10:52.527Z,101598.65
2023-01-11T03:14:09.128Z,101611.77
2023-01-11T03:16:54.656Z,101622.77
2023-01-11T03:19:48.805Z,101629.21
2023-01-11T03:22:37.275Z,101625.27
2023-01-11T03:25:32.481Z,101628.67
2023-01-11T03:28:38.664Z,101637.88
2023-01-11T03:31:40.817Z,101650.20
2023-01-11T03:34:36.726Z,101655.94
2023-01-11T03:37:17.752Z,101664.31
2023-01-11T03:40:08.478Z,101666.93
2023-01-11T03:43:02.710Z,101670.21
2023-01-11T03:45:35.962Z,101675.95
2023-01-11T03:48:07.412Z,101678.48
2023-01-11T03:50:36.217Z,101678.38
2023-01-11T03:53:08.878Z,101674.27
2023-01-11T03:55:45.239Z,101672.52
2023-01-11T03:58:14.769Z,101684.32
2023-01-11T04:00:44.838Z,101682.33
2023-01-11T04:03:14.892Z,101674.99
2023-01-11T04:05:48.355Z,101667.01
2023-01-11T04:08:17.045Z,101661.48
2023-01-11T04:10:45.937Z,101651.01
2023-01-11T04:13:14.798Z,101654.38
2023-01-11T04:15:43.620Z,101660.50
2023-01-11T04:18:12.347Z,101670.39
2023-01-11T04:20:41.396Z,101673.33
2023-01-11T04:23:10.711Z,101680.30
2023-01-11T04:25:39.547Z,101685.66
2023-01-11T04:28:08.342Z,101691.23
2023-01-11T04:30:37.402Z,101691.58
2023-01-11T04:33:06.357Z,101685.77
2023-01-11T04:35:35.194Z,101684.59
2023-01-11T04:38:04.300Z,101687.40
2023-01-11T04:40:33.081Z,101689.86
2023-01-11T04:43:02.544Z,101694.08
2023-01-11T04:45:31.360Z,101692.45
2023-01-11T04:48:00.097Z,101685.36
2023-01-11T04:50:28.888Z,101686.61
2023-01-11T04:52:59.903Z,101683.16
2023-01-11T04:55:28.993Z,101675.66
2023-01-11T04:57:58.035Z,101677.19
2023-01-11T05:00:26.837Z,101682.48
2023-01-11T05:02:59.750Z,101685.63
2023-01-11T05:05:28.666Z,101696.47
2023-01-11T05:07:57.499Z,101699.88
2023-01-11T05:10:26.321Z,101705.75
2023-01-11T05:12:55.383Z,101705.74
2023-01-11T05:15:24.413Z,101704.06
2023-01-11T05:17:53.421Z,101704.12
2023-01-11T05:20:22.966Z,101703.50
2023-01-11T05:22:53.366Z,101700.10
2023-01-11T05:25:22.417Z,101702.05
2023-01-11T05:27:51.780Z,101706.70
2023-01-11T05:33:43.492Z,101708.91
2023-01-11T05:36:16.653Z,101708.79
2023-01-11T05:42:17.376Z,101723.46
2023-01-11T05:45:05.661Z,101732.14
2023-01-11T05:47:35.063Z,101739.40
2023-01-11T05:50:04.503Z,101738.11
2023-01-11T05:52:33.872Z,101740.87
2023-01-11T05:55:02.665Z,101742.17
2023-01-11T05:57:31.894Z,101750.10
2023-01-11T06:00:00.913Z,101747.57
2023-01-11T06:02:30.101Z,101752.48
2023-01-11T06:04:59.867Z,101759.70
2023-01-11T06:07:29.052Z,101760.92
2023-01-11T06:09:58.011Z,101758.79
2023-01-11T06:12:26.896Z,101764.39
2023-01-11T06:14:55.956Z,101772.80
2023-01-11T06:17:24.958Z,101776.09
2023-01-11T06:19:54.004Z,101766.98
2023-01-11T06:22:22.981Z,101757.48
2023-01-11T06:24:51.937Z,101763.77
2023-01-11T06:27:21.138Z,101777.59
2023-01-11T06:29:50.432Z,101776.56
2023-01-11T06:32:33.110Z,101794.77
2023-01-11T06:35:01.921Z,101785.17
2023-01-11T06:37:30.821Z,101787.84
2023-01-11T06:39:59.777Z,101798.70
2023-01-11T06:42:28.758Z,101806.64
2023-01-11T06:44:57.607Z,101800.05
2023-01-11T06:47:26.752Z,101788.45
2023-01-11T06:49:55.458Z,101789.75
2023-01-11T06:52:24.643Z,101809.89
2023-01-11T06:54:53.429Z,101818.92
2023-01-11T06:57:22.403Z,101814.80
2023-01-11T06:59:51.240Z,101813.67
2023-01-11T07:02:20.088Z,101815.13
2023-01-11T07:04:48.871Z,101807.89
2023-01-11T07:08:07.803Z,101812.06
2023-01-11T07:10:36.808Z,101819.79
2023-01-11T07:13:05.566Z,101823.53
2023-01-11T07:15:35.111Z,101822.84
2023-01-11T07:18:05.891Z,101831.46
2023-01-11T07:20:34.568Z,101834.61
2023-01-11T07:23:03.341Z,101834.23
2023-01-11T07:25:32.027Z,101833.27
2023-01-11T07:28:03.619Z,101840.94
2023-01-11T07:30:55.355Z,101852.34
2023-01-11T07:33:25.987Z,101853.51
2023-01-11T07:35:55.687Z,101842.08
2023-01-11T07:38:24.520Z,101845.35
2023-01-11T07:40:53.193Z,101852.63
2023-01-11T07:43:23.654Z,101861.31
2023-01-11T07:45:53.465Z,101875.91
2023-01-11T07:48:26.800Z,101883.11
2023-01-11T07:50:55.976Z,101891.20
2023-01-11T07:53:26.584Z,101893.27
2023-01-11T07:55:56.398Z,101897.34
2023-01-11T07:58:25.324Z,101899.15
2023-01-11T08:00:54.304Z,101893.07
2023-01-11T08:03:23.637Z,101891.34
2023-01-11T08:05:52.892Z,101888.31
2023-01-11T08:08:22.029Z,101896.20
2023-01-11T08:11:09.500Z,101890.54
2023-01-11T08:13:57.870Z,101897.70
2023-01-11T08:16:29.549Z,101886.73
2023-01-11T08:18:58.956Z,101886.85
2023-01-11T08:21:28.499Z,101895.14
2023-01-11T08:23:59.383Z,101896.42
2023-01-11T08:26:28.620Z,101903.45
2023-01-11T08:28:57.148Z,101908.11
2023-01-11T08:31:26.479Z,101922.98
2023-01-11T08:33:55.412Z,101921.05
2023-01-11T08:36:26.994Z,101923.66
2023-01-11T08:38:59.062Z,101933.85
2023-01-11T08:41:27.745Z,101932.38
2023-01-11T08:43:56.531Z,101922.44
2023-01-11T08:46:26.349Z,101926.68
2023-01-11T08:48:55.262Z,101927.00
2023-01-11T08:51:24.060Z,101922.60
2023-01-11T08:53:53.476Z,101934.16
2023-01-11T08:56:22.166Z,101943.39
2023-01-11T08:58:50.990Z,101941.27
2023-01-11T09:04:51.602Z,101938.91
2023-01-11T09:07:20.376Z,101920.54
2023-01-11T09:09:49.230Z,101908.36
2023-01-11T09:12:18.990Z,101926.41
2023-01-11T09:14:47.525Z,101927.45
2023-01-11T09:17:16.310Z,101922.43
2023-01-11T09:19:45.111Z,101920.23
2023-01-11T09:22:21.957Z,101915.40
2023-01-11T09:24:50.741Z,101913.86
2023-01-11T09:27:20.004Z,101896.77
2023-01-11T09:29:48.773Z,101903.98
2023-01-11T09:32:17.817Z,101914.71
2023-01-11T09:34:47.410Z,101938.80
2023-01-11T09:37:17.076Z,101947.48
2023-01-11T09:39:51.883Z,101955.95
2023-01-11T09:42:35.216Z,101957.55
2023-01-11T09:45:23.647Z,101944.46
2023-01-11T09:48:27.513Z,101943.42
2023-01-11T09:50:57.992Z,101953.41
2023-01-11T09:53:38.729Z,101964.53
2023-01-11T09:56:55.150Z,101956.73
2023-01-11T09:59:48.859Z,101953.13
2023-01-11T10:02:54.242Z,101956.05
2023-01-11T10:05:56.664Z,101936.31
2023-01-11T10:18:26.165Z,101930.59
2023-01-11T10:19:48.244Z,101944.52
2023-01-11T10:22:23.788Z,101949.54
2023-01-11T10:25:22.054Z,101965.45
2023-01-11T10:28:08.081Z,101972.86
2023-01-11T10:31:08.504Z,101969.68
2023-01-11T10:34:18.701Z,101958.66
2023-01-11T10:37:22.939Z,101952.92
2023-01-11T10:40:37.814Z,101950.31
2023-01-11T10:43:22.712Z,101952.05
2023-01-11T10:46:09.482Z,101962.27
2023-01-11T10:48:47.295Z,101984.33
2023-01-11T10:51:42.281Z,101983.23
2023-01-11T10:54:22.370Z,101977.63
2023-01-11T10:57:13.553Z,101967.51
2023-01-11T11:00:04.700Z,101961.70
2023-01-11T11:02:36.301Z,101970.99
2023-01-11T11:05:11.106Z,101966.11
2023-01-11T11:08:01.073Z,101966.07
2023-01-11T11:10:55.222Z,101970.59
2023-01-11T11:13:54.070Z,101960.35
2023-01-11T11:16:22.937Z,101942.08
2023-01-11T11:18:54.491Z,101937.63
2023-01-11T11:21:34.219Z,101949.70
2023-01-11T11:24:14.586Z,101955.27
2023-01-11T11:26:49.956Z,101943.36
2023-01-11T11:29:29.488Z,101934.40
2023-01-11T11:32:01.785Z,101925.99
2023-01-11T11:34:31.241Z,101930.99
2023-01-11T11:37:00.931Z,101934.13
2023-01-11T11:39:32.149Z,101928.48
2023-01-11T11:42:18.291Z,101932.73
2023-01-11T11:45:10.831Z,101930.43
2023-01-11T11:47:39.551Z,101932.77
2023-01-11T11:50:42.589Z,101930.11
2023-01-11T11:53:37.032Z,101925.52
2023-01-11T11:56:18.844Z,101940.77
2023-01-11T11:59:10.981Z,101941.61
2023-01-11T12:01:48.871Z,101938.35
2023-01-11T12:05:18.019Z,101940.46
2023-01-11T12:07:58.425Z,101945.48
2023-01-11T12:10:30.390Z,101945.30
2023-01-11T12:13:04.323Z,101945.14
2023-01-11T12:15:35.045Z,101940.14
2023-01-11T12:18:33.077Z,101931.65
2023-01-11T12:21:26.230Z,101914.50
2023-01-11T12:24:19.809Z,101909.28
2023-01-11T12:27:45.250Z,101921.11
2023-01-11T12:30:52.685Z,101910.50
2023-01-11T12:34:21.551Z,101906.92
2023-01-11T12:37:32.033Z,101915.07
2023-01-11T12:40:22.591Z,101907.63
2023-01-11T12:43:44.314Z,101906.39
2023-01-11T12:46:49.842Z,101903.79
2023-01-11T12:49:48.938Z,101901.33
2023-01-11T12:52:43.443Z,101900.87
2023-01-11T12:55:33.957Z,101890.48
2023-01-11T12:58:33.918Z,101888.46
2023-01-11T13:01:15.400Z,101885.13
2023-01-11T13:04:12.120Z,101884.18
2023-01-11T13:06:53.952Z,101884.03
2023-01-11T13:09:44.108Z,101884.43
2023-01-11T13:12:27.819Z,101884.92
2023-01-11T13:15:21.213Z,101893.71
2023-01-11T13:17:58.019Z,101895.19
2023-01-11T13:21:00.716Z,101896.23
2023-01-11T13:23:59.822Z,101904.25
2023-01-11T13:26:37.733Z,101908.92
2023-01-11T13:29:43.161Z,101913.34
2023-01-11T13:32:23.757Z,101909.05
2023-01-11T13:35:02.573Z,101913.92
2023-01-11T13:37:55.325Z,101915.16
2023-01-11T13:40:32.536Z,101902.09
2023-01-11T13:43:34.238Z,101902.80
2023-01-11T13:46:10.972Z,101918.24
2023-01-11T13:52:19.257Z,101925.48
2023-01-11T13:55:26.398Z,101927.73
2023-01-11T13:58:52.081Z,101942.19
2023-01-11T14:01:47.545Z,101954.86
2023-01-11T14:04:45.343Z,101954.97
2023-01-11T14:07:46.057Z,101958.80
2023-01-11T14:10:37.013Z,101955.30
2023-01-11T14:13:40.728Z,101955.61
2023-01-11T14:16:52.937Z,101950.14
2023-01-11T14:19:46.630Z,101954.14
2023-01-11T14:22:47.976Z,101955.70
2023-01-11T14:25:42.135Z,101952.36
2023-01-11T14:28:45.273Z,101953.52
2023-01-11T14:32:04.667Z,101937.21
2023-01-11T14:35:08.384Z,101935.38
2023-01-11T14:38:14.614Z,101940.20
2023-01-11T14:41:11.204Z,101938.66
2023-01-11T14:44:14.088Z,101932.48
2023-01-11T14:46:48.967Z,101928.40
2023-01-11T14:49:33.140Z,101929.13
2023-01-11T14:52:14.857Z,101928.06
2023-01-11T14:54:49.544Z,101932.45
2023-01-11T14:57:42.585Z,101944.86
2023-01-11T15:00:20.373Z,101939.20
2023-01-11T15:03:01.812Z,101939.52
2023-01-11T15:05:45.371Z,101942.67
2023-01-11T15:08:14.227Z,101945.92
2023-01-11T15:11:07.980Z,101941.07
2023-01-11T15:13:51.667Z,101935.39
2023-01-11T15:16:44.531Z,101932.80
2023-01-11T15:19:34.919Z,101942.45
2023-01-11T15:22:06.208Z,101941.94
2023-01-11T15:24:54.850Z,101950.30
2023-01-11T15:27:41.779Z,101961.09
2023-01-11T15:30:30.383Z,101966.92
2023-01-11T15:33:17.452Z,101969.30
2023-01-11T15:36:03.952Z,101977.04
2023-01-11T15:39:10.727Z,101975.08
2023-01-11T15:42:08.253Z,101979.27
2023-01-11T15:45:33.164Z,101974.76
2023-01-11T15:48:26.461Z,101971.10
2023-01-11T15:51:38.865Z,101973.21
2023-01-11T15:54:25.822Z,101976.98
2023-01-11T15:57:07.080Z,101973.84
2023-01-11T16:00:23.969Z,101970.92
2023-01-11T16:03:36.193Z,101970.94
2023-01-11T16:07:21.430Z,101962.30
2023-01-11T16:10:09.279Z,101963.23
2023-01-11T16:12:57.069Z,101964.57
2023-01-11T16:15:52.265Z,101971.55
2023-01-11T16:18:27.576Z,101976.25
2023-01-11T16:21:08.518Z,101971.86
2023-01-11T16:23:39.214Z,101971.36
2023-01-11T16:26:08.773Z,101953.94
2023-01-11T16:28:38.207Z,101951.06
2023-01-11T16:31:07.508Z,101952.88
2023-01-11T16:33:36.290Z,101954.70
2023-01-11T16:36:23.887Z,101952.16
2023-01-11T16:39:06.698Z,101954.23
2023-01-11T16:41:53.349Z,101968.05
2023-01-11T16:45:06.602Z,101981.27
2023-01-11T16:47:35.082Z,101988.26
2023-01-11T16:50:25.398Z,101988.27
2023-01-11T16:52:59.509Z,101988.54
2023-01-11T16:55:42.785Z,101990.77
2023-01-11T16:58:30.998Z,101991.67
2023-01-11T17:01:08.463Z,101996.34
2023-01-11T17:03:58.137Z,101993.83
2023-01-11T17:06:27.129Z,101991.71
2023-01-11T17:09:00.146Z,101986.96
2023-01-11T17:11:34.758Z,101992.10
2023-01-11T17:14:30.708Z,101997.52
2023-01-11T17:17:12.552Z,101997.66
2023-01-11T17:19:51.693Z,101992.04
2023-01-11T17:22:31.936Z,101986.34
2023-01-11T17:25:05.859Z,101985.16
2023-01-11T17:27:43.547Z,101984.19
2023-01-11T17:30:27.122Z,101990.08
2023-01-11T17:33:02.275Z,101996.10
2023-01-11T17:35:37.740Z,101997.51
2023-01-11T17:38:11.533Z,101996.80
2023-01-11T17:40:41.017Z,101988.40
2023-01-11T17:43:47.082Z,101975.98
2023-01-11T17:46:27.654Z,101970.91
2023-01-11T17:49:00.004Z,101972.55
2023-01-11T17:51:35.245Z,101987.24
2023-01-11T17:54:04.727Z,101996.85
2023-01-11T17:56:42.330Z,102001.24
2023-01-11T17:59:25.064Z,102006.17
2023-01-11T18:02:12.671Z,102006.92
2023-01-11T18:04:44.455Z,101995.83
2023-01-11T18:07:19.749Z,101994.88
2023-01-11T18:10:03.177Z,102001.06
2023-01-11T18:16:00.819Z,101999.44
2023-01-11T18:18:50.913Z,102005.77
2023-01-11T18:21:29.002Z,102001.77
2023-01-11T18:24:11.306Z,101994.27
2023-01-11T18:26:50.592Z,101980.58
2023-01-11T18:29:44.215Z,101972.75
2023-01-11T18:32:16.045Z,101977.27
2023-01-11T18:34:49.138Z,101977.86
2023-01-11T18:37:18.857Z,101983.34
2023-01-11T18:39:49.472Z,101978.52
2023-01-11T18:42:24.735Z,101975.74
2023-01-11T18:45:00.170Z,101976.30
2023-01-11T18:47:35.619Z,101974.52
2023-01-11T18:50:05.150Z,101969.28
2023-01-11T18:52:37.391Z,101969.19
2023-01-11T18:55:10.534Z,101974.82
2023-01-11T18:57:39.884Z,101969.16
2023-01-11T19:00:16.026Z,101974.59
2023-01-11T19:02:46.994Z,101972.95
2023-01-11T19:05:20.573Z,101966.92
2023-01-11T19:07:50.313Z,101967.11
2023-01-11T19:10:24.009Z,101957.80
2023-01-11T19:12:58.411Z,101943.95
2023-01-11T19:15:27.922Z,101947.88
2023-01-11T19:17:56.955Z,101943.61
2023-01-11T19:23:01.192Z,101945.45
2023-01-11T19:25:30.083Z,101949.73
2023-01-11T19:27:58.927Z,101955.79
2023-01-11T19:30:27.798Z,101956.95
2023-01-11T19:32:57.046Z,101950.23
2023-01-11T19:35:26.323Z,101944.66
2023-01-11T19:37:55.932Z,101942.13
2023-01-11T19:40:27.838Z,101937.64
2023-01-11T19:43:01.300Z,101940.36
2023-01-11T19:45:30.135Z,101940.46
2023-01-11T19:47:59.041Z,101947.33
2023-01-11T19:50:30.859Z,101947.40
2023-01-11T19:53:04.030Z,101948.70
2023-01-11T19:55:33.810Z,101952.20
2023-01-11T19:58:08.709Z,101950.14
2023-01-11T20:00:38.286Z,101952.54
2023-01-11T20:03:07.411Z,101947.77
2023-01-11T20:05:36.578Z,101946.01
2023-01-11T20:08:08.422Z,101947.23
2023-01-11T20:10:48.291Z,101946.98
2023-01-11T20:13:17.469Z,101946.02
2023-01-11T20:15:47.615Z,101950.95
2023-01-11T20:18:17.316Z,101942.45
2023-01-11T20:20:56.848Z,101937.20
2023-01-11T20:23:27.504Z,101929.39
2023-01-11T20:26:04.247Z,101929.89
2023-01-11T20:28:35.744Z,101926.77
2023-01-11T20:31:07.256Z,101925.88
2023-01-11T20:33:36.676Z,101925.18
2023-01-11T20:36:15.703Z,101929.30
2023-01-11T20:38:46.234Z,101926.81
2023-01-11T20:41:45.932Z,101929.05
2023-01-11T20:44:27.450Z,101934.16
2023-01-11T20:47:01.458Z,101946.04
2023-01-11T20:49:30.596Z,101953.09
2023-01-11T20:51:59.630Z,101957.88
2023-01-11T20:54:28.485Z,101951.05
2023-01-11T20:57:02.769Z,101947.34
2023-01-11T20:59:35.253Z,101943.17
2023-01-11T21:02:07.706Z,101936.72
2023-01-11T21:04:37.520Z,101947.60
2023-01-11T21:07:07.165Z,101944.86
2023-01-11T21:09:36.157Z,101945.48
2023-01-11T21:12:05.469Z,101943.93
2023-01-11T21:14:34.422Z,101940.77
2023-01-11T21:17:03.603Z,101943.49
2023-01-11T21:19:32.857Z,101949.82
2023-01-11T21:22:01.852Z,101946.48
2023-01-11T21:24:30.874Z,101930.52
2023-01-11T21:26:59.896Z,101929.20
2023-01-11T21:29:29.098Z,101932.06
2023-01-11T21:31:57.775Z,101928.66
2023-01-11T21:34:30.158Z,101918.38
2023-01-11T21:37:00.231Z,101916.92
2023-01-11T21:39:29.305Z,101917.55
2023-01-11T21:42:01.661Z,101918.71
2023-01-11T21:44:34.078Z,101931.36
2023-01-11T21:47:07.027Z,101923.45
2023-01-11T21:49:36.280Z,101913.27
2023-01-11T21:53:44.409Z,101897.64
2023-01-11T21:56:13.593Z,101907.21
2023-01-11T21:58:42.570Z,101901.81
2023-01-11T22:01:14.268Z,101892.96
2023-01-11T22:03:43.507Z,101893.91
2023-01-11T22:06:12.583Z,101891.93
2023-01-11T22:08:44.904Z,101901.11
2023-01-11T22:11:18.452Z,101896.00
2023-01-11T22:13:47.232Z,101900.47
2023-01-11T22:16:18.303Z,101889.72
2023-01-11T22:18:47.162Z,101898.89
2023-01-11T22:21:19.196Z,101879.00
2023-01-11T22:23:48.837Z,101881.35
2023-01-11T22:26:19.071Z,101889.91
2023-01-11T22:29:07.164Z,101884.66
2023-01-11T22:31:36.035Z,101878.16
2023-01-11T22:34:04.834Z,101882.37
2023-01-11T22:36:33.553Z,101887.52
2023-01-11T22:39:02.603Z,101894.36
2023-01-11T22:41:31.438Z,101881.06
2023-01-11T22:44:00.315Z,101877.31
2023-01-11T22:46:29.227Z,101875.91
2023-01-11T22:48:59.171Z,101877.88
2023-01-11T22:51:28.792Z,101873.04
2023-01-11T22:57:29.873Z,101876.70
2023-01-11T22:59:58.990Z,101875.98
2023-01-11T23:02:27.830Z,101873.83
2023-01-11T23:04:56.753Z,101859.05
2023-01-11T23:07:25.758Z,101859.54
2023-01-11T23:09:58.021Z,101855.33
2023-01-11T23:12:45.347Z,101853.55
2023-01-11T23:15:14.076Z,101839.73
2023-01-11T23:17:42.957Z,101830.71
2023-01-11T23:20:12.467Z,101841.85
2023-01-11T23:22:41.412Z,101840.45
2023-01-11T23:25:10.577Z,101841.38
2023-01-11T23:27:39.985Z,101832.48
2023-01-11T23:30:09.739Z,101832.66
2023-01-11T23:32:38.581Z,101835.27
2023-01-11T23:35:09.276Z,101833.65
2023-01-11T23:37:38.036Z,101827.00
2023-01-11T23:40:08.057Z,101827.35
2023-01-11T23:42:38.587Z,101823.59
2023-01-11T23:45:08.235Z,101818.52
2023-01-11T23:47:37.185Z,101819.13
2023-01-11T23:50:06.525Z,101830.33
2023-01-11T23:52:35.516Z,101838.23
2023-01-11T23:55:04.622Z,101829.91
2023-01-11T23:57:33.415Z,101827.15
